sensor_id;sensor_type;location;lat;lon;timestamp;pressure;altitude;pressure_sealevel;temperature;humidity
16595;BME280;8410;52.532;13.336;2023-04-15T00:02:13;100148.47;;;9.21;100.00
16595;BME280;8410;52.532;13.336;2023-04-15T00:04:41;100146.59;;;9.00;100.00
16595;BME280;8410;52.532;13.336;2023-04-15T00:07:08;100144.88;;;8.99;100.00
16595;BME280;8410;52.532;13.336;2023-04-15T00:09:36;100141.31;;;8.87;100.00
16595;BME280;8410;52.532;13.336;2023-04-15T00:12:05;100142.56;;;9.30;100.00
16595;BME280;8410;52.532;13.336;2023-04-15T00:14:33;100138.88;;;9.00;100.00
16595;BME280;8410;52.532;13.336;2023-04-15T00:17:02;100140.78;;;9.20;100.00
16595;BME280;8410;52.532;13.336;2023-04-15T00:19:29;100146.13;;;9.47;100.00
16595;BME280;8410;52.532;13.336;2023-04-15T00:21:58;100136.81;;;9.65;100.00
16595;BME280;8410;52.532;13.336;2023-04-15T00:24:26;100143.44;;;9.31;100.00
16595;BME280;8410;52.532;13.336;2023-04-15T00:26:53;100142.50;;;9.24;100.00
16595;BME280;8410;52.532;13.336;2023-04-15T00:29:22;100139.09;;;9.26;100.00
16595;BME280;8410;52.532;13.336;2023-04-15T00:31:49;100134.16;;;9.49;100.00
16595;BME280;8410;52.532;13.336;2023-04-15T00:34:17;100134.84;;;9.28;100.00
16595;BME280;8410;52.532;13.336;2023-04-15T00:36:44;100130.88;;;9.72;100.00
16595;BME280;8410;52.532;13.336;2023-04-15T00:39:12;100127.47;;;9.76;100.00
16595;BME280;8410;52.532;13.336;2023-04-15T00:41:39;100130.88;;;9.78;100.00
16595;BME280;8410;52.532;13.336;2023-04-15T00:44:07;100125.84;;;9.97;100.00
16595;BME280;8410;52.532;13.336;2023-04-15T00:46:38;100125.88;;;9.98;100.00
16595;BME280;8410;52.532;13.336;2023-04-15T00:49:06;100125.03;;;9.98;100.00
16595;BME280;8410;52.532;13.336;2023-04-15T00:51:33;100124.22;;;10.11;100.00
16595;BME280;8410;52.532;13.336;2023-04-15T00:54:02;100130.22;;;10.08;100.00
16595;BME280;8410;52.532;13.336;2023-04-15T00:56:30;100130.41;;;10.51;100.00
16595;BME280;8410;52.532;13.336;2023-04-15T00:59:01;100127.81;;;10.44;100.00
16595;BME280;8410;52.532;13.336;2023-04-15T01:01:28;100121.69;;;10.26;100.00
16595;BME280;8410;52.532;13.336;2023-04-15T01:03:58;100120.81;;;10.18;100.00
16595;BME280;8410;52.532;13.336;2023-04-15T01:06:25;100120.91;;;10.27;100.00
16595;BME280;8410;52.532;13.336;2023-04-15T01:08:53;100117.34;;;10.07;100.00
16595;BME280;8410;52.532;13.336;2023-04-15T01:11:22;100121.69;;;10.22;100.00
16595;BME280;8410;52.532;13.336;2023-04-15T01:13:50;100110.31;;;9.75;100.00
16595;BME280;8410;52.532;13.336;2023-04-15T01:16:18;100113.25;;;10.55;100.00
16595;BME280;8410;52.532;13.336;2023-04-15T01:18:46;100112.41;;;10.59;100.00
16595;BME280;8410;52.532;13.336;2023-04-15T01:21:16;100100.41;;;10.79;100.00
16595;BME280;8410;52.532;13.336;2023-04-15T01:23:46;100110.50;;;10.18;100.00
16595;BME280;8410;52.532;13.336;2023-04-15T01:26:15;100103.69;;;10.23;100.00
16595;BME280;8410;52.532;13.336;2023-04-15T01:28:43;100108.06;;;10.41;100.00
16595;BME280;8410;52.532;13.336;2023-04-15T01:31:12;100111.47;;;10.29;100.00
16595;BME280;8410;52.532;13.336;2023-04-15T01:33:41;100113.97;;;10.23;100.00
16595;BME280;8410;52.532;13.336;2023-04-15T01:36:09;100111.50;;;10.43;100.00
16595;BME280;8410;52.532;13.336;2023-04-15T01:38:37;100113.88;;;9.99;100.00
16595;BME280;8410;52.532;13.336;2023-04-15T01:41:05;100110.66;;;10.52;100.00
16595;BME280;8410;52.532;13.336;2023-04-15T01:43:35;100101.97;;;10.22;100.00
16595;BME280;8410;52.532;13.336;2023-04-15T01:46:03;100114.94;;;10.53;100.00
16595;BME280;8410;52.532;13.336;2023-04-15T01:48:30;100108.81;;;10.17;100.00
16595;BME280;8410;52.532;13.336;2023-04-15T01:50:58;100110.50;;;10.18;100.00
16595;BME280;8410;52.532;13.336;2023-04-15T01:54:22;100104.44;;;9.98;100.00
16595;BME280;8410;52.532;13.336;2023-04-15T01:56:49;100103.78;;;10.38;100.00
16595;BME280;8410;52.532;13.336;2023-04-15T01:59:18;100103.69;;;10.26;100.00
16595;BME280;8410;52.532;13.336;2023-04-15T02:01:46;100104.50;;;10.13;100.00
16595;BME280;8410;52.532;13.336;2023-04-15T02:04:13;100102.72;;;9.92;100.00
16595;BME280;8410;52.532;13.336;2023-04-15T02:06:42;100101.81;;;9.85;100.00
16595;BME280;8410;52.532;13.336;2023-04-15T02:09:10;100105.28;;;9.92;100.00
16595;BME280;8410;52.532;13.336;2023-04-15T02:11:37;100103.47;;;9.74;100.00
16595;BME280;8410;52.532;13.336;2023-04-15T02:14:05;100097.66;;;10.18;100.00
16595;BME280;8410;52.532;13.336;2023-04-15T02:16:34;100101.03;;;10.02;100.00
16595;BME280;8410;52.532;13.336;2023-04-15T02:19:01;100095.97;;;10.26;100.00
16595;BME280;8410;52.532;13.336;2023-04-15T02:21:29;100100.31;;;10.33;100.00
16595;BME280;8410;52.532;13.336;2023-04-15T02:23:57;100099.47;;;10.30;100.00
16595;BME280;8410;52.532;13.336;2023-04-15T02:26:24;100096.09;;;10.54;100.00
16595;BME280;8410;52.532;13.336;2023-04-15T02:28:51;100084.13;;;10.94;100.00
16595;BME280;8410;52.532;13.336;2023-04-15T02:31:19;100093.56;;;10.69;100.00
16595;BME280;8410;52.532;13.336;2023-04-15T02:33:48;100095.22;;;10.49;100.00
16595;BME280;8410;52.532;13.336;2023-04-15T02:36:16;100090.09;;;10.72;100.00
16595;BME280;8410;52.532;13.336;2023-04-15T02:38:43;100097.47;;;9.75;100.00
16595;BME280;8410;52.532;13.336;2023-04-15T02:41:11;100093.38;;;10.17;100.00
16595;BME280;8410;52.532;13.336;2023-04-15T02:43:38;100096.75;;;10.07;100.00
16595;BME280;8410;52.532;13.336;2023-04-15T02:46:06;100100.22;;;10.09;100.00
16595;BME280;8410;52.532;13.336;2023-04-15T02:48:34;100095.28;;;10.70;100.00
16595;BME280;8410;52.532;13.336;2023-04-15T02:51:14;100106.88;;;9.75;100.00
16595;BME280;8410;52.532;13.336;2023-04-15T02:53:42;100105.88;;;9.46;100.00
16595;BME280;8410;52.532;13.336;2023-04-15T02:56:09;100106.78;;;9.52;100.00
16595;BME280;8410;52.532;13.336;2023-04-15T02:58:39;100102.00;;;10.24;100.00
16595;BME280;8410;52.532;13.336;2023-04-15T03:01:06;100097.75;;;10.33;100.00
16595;BME280;8410;52.532;13.336;2023-04-15T03:03:34;100109.31;;;9.47;100.00
16595;BME280;8410;52.532;13.336;2023-04-15T03:06:02;100114.41;;;9.45;100.00
16595;BME280;8410;52.532;13.336;2023-04-15T03:08:31;100115.25;;;9.41;100.00
16595;BME280;8410;52.532;13.336;2023-04-15T03:10:58;100107.63;;;9.57;100.00
16595;BME280;8410;52.532;13.336;2023-04-15T03:13:27;100113.63;;;9.53;100.00
16595;BME280;8410;52.532;13.336;2023-04-15T03:15:55;100111.31;;;10.00;100.00
16595;BME280;8410;52.532;13.336;2023-04-15T03:18:23;100106.03;;;9.74;100.00
16595;BME280;8410;52.532;13.336;2023-04-15T03:20:50;100114.63;;;9.78;100.00
16595;BME280;8410;52.532;13.336;2023-04-15T03:23:18;100104.16;;;9.47;100.00
16595;BME280;8410;52.532;13.336;2023-04-15T03:25:54;100103.41;;;9.60;100.00
16595;BME280;8410;52.532;13.336;2023-04-15T03:28:23;100111.91;;;9.52;100.00
16595;BME280;8410;52.532;13.336;2023-04-15T03:30:52;100114.72;;;9.94;100.00
16595;BME280;8410;52.532;13.336;2023-04-15T03:33:19;100108.69;;;9.86;100.00
16595;BME280;8410;52.532;13.336;2023-04-15T03:35:47;100112.13;;;9.91;100.00
16595;BME280;8410;52.532;13.336;2023-04-15T03:38:14;100105.53;;;10.49;100.00
16595;BME280;8410;52.532;13.336;2023-04-15T03:40:47;100112.25;;;10.21;100.00
16595;BME280;8410;52.532;13.336;2023-04-15T03:43:14;100118.94;;;9.83;100.00
16595;BME280;8410;52.532;13.336;2023-04-15T03:45:42;100116.44;;;9.96;100.00
16595;BME280;8410;52.532;13.336;2023-04-15T03:48:09;100114.56;;;9.65;100.00
16595;BME280;8410;52.532;13.336;2023-04-15T03:50:43;100110.16;;;9.47;100.00
16595;BME280;8410;52.532;13.336;2023-04-15T03:53:11;100111.25;;;9.88;100.00
16595;BME280;8410;52.532;13.336;2023-04-15T03:55:38;100111.22;;;9.80;100.00
16595;BME280;8410;52.532;13.336;2023-04-15T03:58:07;100108.69;;;9.86;100.00
16595;BME280;8410;52.532;13.336;2023-04-15T04:00:38;100110.38;;;9.81;100.00
16595;BME280;8410;52.532;13.336;2023-04-15T04:03:06;100116.25;;;9.63;100.00
16595;BME280;8410;52.532;13.336;2023-04-15T04:05:34;100101.22;;;10.45;100.00
16595;BME280;8410;52.532;13.336;2023-04-15T04:08:04;100115.53;;;9.90;100.00
16595;BME280;8410;52.532;13.336;2023-04-15T04:10:32;100116.22;;;9.57;100.00
16595;BME280;8410;52.532;13.336;2023-04-15T04:13:01;100120.84;;;10.24;100.00
16595;BME280;8410;52.532;13.336;2023-04-15T04:15:30;100113.19;;;10.40;100.00
16595;BME280;8410;52.532;13.336;2023-04-15T04:17:58;100116.72;;;10.62;100.00
16595;BME280;8410;52.532;13.336;2023-04-15T04:20:26;100114.88;;;10.31;100.00
16595;BME280;8410;52.532;13.336;2023-04-15T04:22:53;100113.25;;;10.55;100.00
16595;BME280;8410;52.532;13.336;2023-04-15T04:25:21;100111.53;;;10.54;100.00
16595;BME280;8410;52.532;13.336;2023-04-15T04:27:49;100118.34;;;10.35;100.00
16595;BME280;8410;52.532;13.336;2023-04-15T04:30:17;100117.41;;;10.25;100.00
16595;BME280;8410;52.532;13.336;2023-04-15T04:32:46;100122.50;;;10.10;100.00
16595;BME280;8410;52.532;13.336;2023-04-15T04:35:13;100120.91;;;10.33;100.00
16595;BME280;8410;52.532;13.336;2023-04-15T04:37:41;100120.06;;;10.39;100.00
16595;BME280;8410;52.532;13.336;2023-04-15T04:40:09;100115.88;;;10.92;100.00
16595;BME280;8410;52.532;13.336;2023-04-15T04:42:37;100115.00;;;11.43;100.00
16595;BME280;8410;52.532;13.336;2023-04-15T04:45:06;100120.19;;;11.16;99.60
16595;BME280;8410;52.532;13.336;2023-04-15T04:47:33;100125.31;;;10.79;100.00
16595;BME280;8410;52.532;13.336;2023-04-15T04:50:03;100119.31;;;11.24;99.67
16595;BME280;8410;52.532;13.336;2023-04-15T04:52:31;100123.59;;;10.87;100.00
16595;BME280;8410;52.532;13.336;2023-04-15T04:54:58;100123.59;;;10.79;100.00
16595;BME280;8410;52.532;13.336;2023-04-15T04:57:26;100129.50;;;10.35;100.00
16595;BME280;8410;52.532;13.336;2023-04-15T04:59:53;100127.03;;;10.88;100.00
16595;BME280;8410;52.532;13.336;2023-04-15T05:02:21;100137.00;;;9.96;100.00
16595;BME280;8410;52.532;13.336;2023-04-15T05:04:48;100140.56;;;10.22;100.00
16595;BME280;8410;52.532;13.336;2023-04-15T05:07:21;100142.19;;;10.00;100.00
16595;BME280;8410;52.532;13.336;2023-04-15T05:09:48;100143.13;;;10.25;100.00
16595;BME280;8410;52.532;13.336;2023-04-15T05:12:16;100144.78;;;10.08;100.00
16595;BME280;8410;52.532;13.336;2023-04-15T05:14:43;100142.94;;;9.82;100.00
16595;BME280;8410;52.532;13.336;2023-04-15T05:17:12;100150.78;;;10.08;100.00
16595;BME280;8410;52.532;13.336;2023-04-15T05:19:39;100148.19;;;10.01;100.00
16595;BME280;8410;52.532;13.336;2023-04-15T05:22:06;100139.94;;;11.01;100.00
16595;BME280;8410;52.532;13.336;2023-04-15T05:24:35;100145.00;;;10.60;100.00
16595;BME280;8410;52.532;13.336;2023-04-15T05:27:03;100155.25;;;10.45;100.00
16595;BME280;8410;52.532;13.336;2023-04-15T05:29:30;100160.38;;;10.42;100.00
16595;BME280;8410;52.532;13.336;2023-04-15T05:31:58;100148.50;;;10.93;100.00
16595;BME280;8410;52.532;13.336;2023-04-15T05:34:25;100145.97;;;11.16;100.00
16595;BME280;8410;52.532;13.336;2023-04-15T05:36:53;100157.94;;;10.83;100.00
16595;BME280;8410;52.532;13.336;2023-04-15T05:39:20;100162.25;;;10.86;100.00
16595;BME280;8410;52.532;13.336;2023-04-15T05:41:49;100158.78;;;10.80;100.00
16595;BME280;8410;52.532;13.336;2023-04-15T05:44:17;100152.78;;;10.95;100.00
16595;BME280;8410;52.532;13.336;2023-04-15T05:46:44;100153.66;;;10.93;100.00
16595;BME280;8410;52.532;13.336;2023-04-15T05:49:12;100163.91;;;10.68;100.00
16595;BME280;8410;52.532;13.336;2023-04-15T05:51:40;100160.53;;;11.09;100.00
16595;BME280;8410;52.532;13.336;2023-04-15T05:54:07;100168.94;;;10.34;100.00
16595;BME280;8410;52.532;13.336;2023-04-15T05:56:34;100158.69;;;10.44;100.00
16595;BME280;8410;52.532;13.336;2023-04-15T05:59:03;100155.38;;;10.86;100.00
16595;BME280;8410;52.532;13.336;2023-04-15T06:01:32;100148.47;;;11.85;98.28
16595;BME280;8410;52.532;13.336;2023-04-15T06:04:00;100148.53;;;11.20;100.00
16595;BME280;8410;52.532;13.336;2023-04-15T06:06:28;100149.34;;;11.75;98.77
16595;BME280;8410;52.532;13.336;2023-04-15T06:08:56;100156.22;;;11.73;97.02
16595;BME280;8410;52.532;13.336;2023-04-15T06:11:23;100154.53;;;11.07;100.00
16595;BME280;8410;52.532;13.336;2023-04-15T06:13:52;100159.66;;;10.86;100.00
16595;BME280;8410;52.532;13.336;2023-04-15T06:16:20;100163.84;;;10.53;100.00
16595;BME280;8410;52.532;13.336;2023-04-15T06:18:48;100150.22;;;11.03;100.00
16595;BME280;8410;52.532;13.336;2023-04-15T06:21:16;100153.69;;;11.42;99.92
16595;BME280;8410;52.532;13.336;2023-04-15T06:23:43;100155.41;;;11.29;100.00
16595;BME280;8410;52.532;13.336;2023-04-15T06:26:11;100153.69;;;11.30;100.00
16595;BME280;8410;52.532;13.336;2023-04-15T06:28:38;100148.53;;;11.30;100.00
16595;BME280;8410;52.532;13.336;2023-04-15T06:31:05;100149.31;;;12.08;100.00
16595;BME280;8410;52.532;13.336;2023-04-15T06:33:34;100155.41;;;11.24;97.89
16595;BME280;8410;52.532;13.336;2023-04-15T06:36:02;100161.38;;;11.76;99.13
16595;BME280;8410;52.532;13.336;2023-04-15T06:38:29;100156.25;;;11.13;99.50
16595;BME280;8410;52.532;13.336;2023-04-15T06:40:57;100167.41;;;11.13;100.00
16595;BME280;8410;52.532;13.336;2023-04-15T06:43:24;100161.38;;;11.73;100.00
16595;BME280;8410;52.532;13.336;2023-04-15T06:45:52;100162.25;;;11.75;97.84
16595;BME280;8410;52.532;13.336;2023-04-15T06:48:19;100160.53;;;11.69;97.14
16595;BME280;8410;52.532;13.336;2023-04-15T06:50:49;100164.56;;;12.65;94.37
16595;BME280;8410;52.532;13.336;2023-04-15T06:53:16;100167.00;;;12.85;92.76
16595;BME280;8410;52.532;13.336;2023-04-15T06:55:44;100174.13;;;12.42;91.93
16595;BME280;8410;52.532;13.336;2023-04-15T06:58:12;100181.09;;;12.15;95.23
16595;BME280;8410;52.532;13.336;2023-04-15T07:00:39;100183.78;;;11.52;97.48
16595;BME280;8410;52.532;13.336;2023-04-15T07:03:07;100182.03;;;11.28;97.60
16595;BME280;8410;52.532;13.336;2023-04-15T07:05:36;100190.47;;;12.44;95.90
16595;BME280;8410;52.532;13.336;2023-04-15T07:08:05;100189.75;;;12.03;95.75
16595;BME280;8410;52.532;13.336;2023-04-15T07:10:33;100194.03;;;11.27;96.05
16595;BME280;8410;52.532;13.336;2023-04-15T07:13:00;100198.34;;;11.41;97.66
16595;BME280;8410;52.532;13.336;2023-04-15T07:15:28;100197.50;;;11.50;96.54
16595;BME280;8410;52.532;13.336;2023-04-15T07:17:55;100198.38;;;11.58;96.14
16595;BME280;8410;52.532;13.336;2023-04-15T07:20:22;100205.22;;;11.59;95.97
16595;BME280;8410;52.532;13.336;2023-04-15T07:22:50;100212.91;;;10.91;99.40
16595;BME280;8410;52.532;13.336;2023-04-15T07:25:19;100219.78;;;11.00;99.72
16595;BME280;8410;52.532;13.336;2023-04-15T07:27:47;100213.78;;;11.22;97.81
16595;BME280;8410;52.532;13.336;2023-04-15T07:30:15;100210.41;;;11.42;98.06
16595;BME280;8410;52.532;13.336;2023-04-15T07:32:42;100222.38;;;11.21;96.15
16595;BME280;8410;52.532;13.336;2023-04-15T07:35:10;100219.84;;;11.47;96.85
16595;BME280;8410;52.532;13.336;2023-04-15T07:37:37;100236.06;;;10.87;100.00
16595;BME280;8410;52.532;13.336;2023-04-15T07:40:06;100234.31;;;10.87;100.00
16595;BME280;8410;52.532;13.336;2023-04-15T07:42:35;100235.16;;;10.81;100.00
16595;BME280;8410;52.532;13.336;2023-04-15T07:45:07;100237.75;;;10.80;100.00
16595;BME280;8410;52.532;13.336;2023-04-15T07:47:35;100239.50;;;10.86;100.00
16595;BME280;8410;52.532;13.336;2023-04-15T07:50:03;100228.34;;;11.00;100.00
16595;BME280;8410;52.532;13.336;2023-04-15T07:52:30;100236.97;;;11.07;100.00
16595;BME280;8410;52.532;13.336;2023-04-15T07:55:04;100232.75;;;11.95;99.03
16595;BME280;8410;52.532;13.336;2023-04-15T07:57:32;100242.88;;;10.78;100.00
16595;BME280;8410;52.532;13.336;2023-04-15T08:00:01;100239.56;;;11.10;100.00
16595;BME280;8410;52.532;13.336;2023-04-15T08:02:31;100239.44;;;10.76;100.00
16595;BME280;8410;52.532;13.336;2023-04-15T08:04:58;100244.47;;;10.49;100.00
16595;BME280;8410;52.532;13.336;2023-04-15T08:07:28;100240.31;;;10.81;100.00
16595;BME280;8410;52.532;13.336;2023-04-15T08:09:55;100234.41;;;11.10;100.00
16595;BME280;8410;52.532;13.336;2023-04-15T08:12:23;100244.63;;;10.86;99.87
16595;BME280;8410;52.532;13.336;2023-04-15T08:14:51;100242.06;;;10.86;100.00
16595;BME280;8410;52.532;13.336;2023-04-15T08:17:19;100241.13;;;10.65;100.00
16595;BME280;8410;52.532;13.336;2023-04-15T08:19:56;100243.78;;;10.96;100.00
16595;BME280;8410;52.532;13.336;2023-04-15T08:22:23;100255.81;;;10.91;100.00
16595;BME280;8410;52.532;13.336;2023-04-15T08:24:51;100259.16;;;10.68;100.00
16595;BME280;8410;52.532;13.336;2023-04-15T08:27:18;100254.94;;;10.86;100.00
16595;BME280;8410;52.532;13.336;2023-04-15T08:29:46;100262.59;;;10.64;100.00
16595;BME280;8410;52.532;13.336;2023-04-15T08:32:14;100265.09;;;10.58;100.00
16595;BME280;8410;52.532;13.336;2023-04-15T08:34:43;100261.72;;;10.62;100.00
16595;BME280;8410;52.532;13.336;2023-04-15T08:37:11;100258.50;;;11.43;100.00
16595;BME280;8410;52.532;13.336;2023-04-15T08:39:38;100267.88;;;11.04;100.00
16595;BME280;8410;52.532;13.336;2023-04-15T08:42:11;100266.84;;;10.56;100.00
16595;BME280;8410;52.532;13.336;2023-04-15T08:44:42;100259.34;;;11.20;100.00
16595;BME280;8410;52.532;13.336;2023-04-15T08:47:12;100258.53;;;11.55;100.00
16595;BME280;8410;52.532;13.336;2023-04-15T08:49:40;100264.47;;;11.20;99.47
16595;BME280;8410;52.532;13.336;2023-04-15T08:52:10;100265.38;;;11.39;98.65
16595;BME280;8410;52.532;13.336;2023-04-15T08:54:38;100272.19;;;11.16;99.56
16595;BME280;8410;52.532;13.336;2023-04-15T08:57:06;100275.66;;;11.41;100.00
16595;BME280;8410;52.532;13.336;2023-04-15T08:59:33;100273.88;;;11.06;100.00
16595;BME280;8410;52.532;13.336;2023-04-15T09:02:01;100271.22;;;10.75;100.00
16595;BME280;8410;52.532;13.336;2023-04-15T09:04:30;100285.84;;;10.92;100.00
16595;BME280;8410;52.532;13.336;2023-04-15T09:06:57;100272.22;;;11.23;100.00
16595;BME280;8410;52.532;13.336;2023-04-15T09:09:26;100270.50;;;11.29;100.00
16595;BME280;8410;52.532;13.336;2023-04-15T09:11:54;100286.72;;;10.94;100.00
16595;BME280;8410;52.532;13.336;2023-04-15T09:14:22;100280.72;;;10.95;100.00
16595;BME280;8410;52.532;13.336;2023-04-15T09:16:55;100277.38;;;11.36;100.00
16595;BME280;8410;52.532;13.336;2023-04-15T09:19:24;100275.72;;;12.02;98.54
16595;BME280;8410;52.532;13.336;2023-04-15T09:21:53;100291.03;;;11.01;100.00
16595;BME280;8410;52.532;13.336;2023-04-15T09:24:34;100290.25;;;11.23;99.70
16595;BME280;8410;52.532;13.336;2023-04-15T09:27:02;100280.78;;;11.22;100.00
16595;BME280;8410;52.532;13.336;2023-04-15T09:29:30;100286.00;;;11.50;100.00
16595;BME280;8410;52.532;13.336;2023-04-15T09:32:11;100291.97;;;11.26;100.00
16595;BME280;8410;52.532;13.336;2023-04-15T09:34:39;100289.44;;;11.67;100.00
16595;BME280;8410;52.532;13.336;2023-04-15T09:37:07;100291.22;;;11.96;96.49
16595;BME280;8410;52.532;13.336;2023-04-15T09:39:48;100299.66;;;11.12;100.00
16595;BME280;8410;52.532;13.336;2023-04-15T09:42:16;100297.94;;;11.10;100.00
16595;BME280;8410;52.532;13.336;2023-04-15T09:44:50;100303.06;;;11.02;100.00
16595;BME280;8410;52.532;13.336;2023-04-15T09:47:27;100302.22;;;11.06;100.00
16595;BME280;8410;52.532;13.336;2023-04-15T09:49:56;100309.16;;;11.33;100.00
16595;BME280;8410;52.532;13.336;2023-04-15T09:52:23;100307.38;;;11.09;100.00
16595;BME280;8410;52.532;13.336;2023-04-15T09:54:53;100313.44;;;11.26;100.00
16595;BME280;8410;52.532;13.336;2023-04-15T09:57:21;100319.50;;;11.36;100.00
16595;BME280;8410;52.532;13.336;2023-04-15T09:59:49;100310.03;;;11.49;100.00
16595;BME280;8410;52.532;13.336;2023-04-15T10:02:17;100308.38;;;12.28;98.81
16595;BME280;8410;52.532;13.336;2023-04-15T10:04:47;100322.06;;;11.32;100.00
16595;BME280;8410;52.532;13.336;2023-04-15T10:07:16;100323.69;;;11.08;100.00
16595;BME280;8410;52.532;13.336;2023-04-15T10:09:47;100316.88;;;11.25;100.00
16595;BME280;8410;52.532;13.336;2023-04-15T10:12:16;100323.88;;;11.88;100.00
16595;BME280;8410;52.532;13.336;2023-04-15T10:14:49;100327.22;;;11.44;100.00
16595;BME280;8410;52.532;13.336;2023-04-15T10:17:21;100320.41;;;12.29;100.00
16595;BME280;8410;52.532;13.336;2023-04-15T10:19:52;100332.41;;;11.47;100.00
16595;BME280;8410;52.532;13.336;2023-04-15T10:22:21;100330.72;;;11.74;100.00
16595;BME280;8410;52.532;13.336;2023-04-15T10:24:49;100332.38;;;11.41;100.00
16595;BME280;8410;52.532;13.336;2023-04-15T10:27:19;100326.44;;;11.79;99.81
16595;BME280;8410;52.532;13.336;2023-04-15T10:29:47;100325.63;;;11.98;100.00
16595;BME280;8410;52.532;13.336;2023-04-15T10:32:17;100330.66;;;11.46;100.00
16595;BME280;8410;52.532;13.336;2023-04-15T10:34:45;100324.59;;;11.27;100.00
16595;BME280;8410;52.532;13.336;2023-04-15T10:37:19;100330.72;;;11.66;100.00
16595;BME280;8410;52.532;13.336;2023-04-15T10:39:47;100334.16;;;11.60;100.00
16595;BME280;8410;52.532;13.336;2023-04-15T10:42:18;100337.59;;;11.75;100.00
16595;BME280;8410;52.532;13.336;2023-04-15T10:44:48;100335.00;;;11.59;100.00
16595;BME280;8410;52.532;13.336;2023-04-15T10:47:18;100342.69;;;11.52;100.00
16595;BME280;8410;52.532;13.336;2023-04-15T10:49:48;100350.34;;;11.16;100.00
16595;BME280;8410;52.532;13.336;2023-04-15T10:52:17;100348.66;;;11.24;100.00
16595;BME280;8410;52.532;13.336;2023-04-15T10:54:45;100350.44;;;11.53;100.00
16595;BME280;8410;52.532;13.336;2023-04-15T10:57:14;100343.59;;;11.69;100.00
16595;BME280;8410;52.532;13.336;2023-04-15T11:00:09;100343.59;;;12.66;97.38
16595;BME280;8410;52.532;13.336;2023-04-15T11:02:39;100340.13;;;12.74;98.02
16595;BME280;8410;52.532;13.336;2023-04-15T11:05:08;100340.13;;;12.68;98.41
16595;BME280;8410;52.532;13.336;2023-04-15T11:07:40;100351.34;;;11.77;100.00
16595;BME280;8410;52.532;13.336;2023-04-15T11:13:23;100356.50;;;11.77;100.00
16595;BME280;8410;52.532;13.336;2023-04-15T11:15:56;100359.03;;;11.44;100.00
16595;BME280;8410;52.532;13.336;2023-04-15T11:18:28;100353.97;;;11.97;100.00
16595;BME280;8410;52.532;13.336;2023-04-15T11:20:58;100359.09;;;11.77;100.00
16595;BME280;8410;52.532;13.336;2023-04-15T11:23:28;100377.84;;;11.20;100.00
16595;BME280;8410;52.532;13.336;2023-04-15T11:25:55;100371.94;;;11.64;100.00
16595;BME280;8410;52.532;13.336;2023-04-15T11:28:25;100375.41;;;11.69;100.00
16595;BME280;8410;52.532;13.336;2023-04-15T11:30:53;100365.16;;;12.09;100.00
16595;BME280;8410;52.532;13.336;2023-04-15T11:33:23;100371.94;;;11.61;100.00
16595;BME280;8410;52.532;13.336;2023-04-15T11:35:52;100368.59;;;12.48;100.00
16595;BME280;8410;52.532;13.336;2023-04-15T11:38:20;100380.63;;;11.94;100.00
16595;BME280;8410;52.532;13.336;2023-04-15T11:40:49;100380.63;;;11.94;100.00
16595;BME280;8410;52.532;13.336;2023-04-15T11:43:18;100382.34;;;12.07;100.00
16595;BME280;8410;52.532;13.336;2023-04-15T11:45:48;100386.59;;;11.72;100.00
16595;BME280;8410;52.532;13.336;2023-04-15T11:48:17;100398.50;;;11.36;100.00
16595;BME280;8410;52.532;13.336;2023-04-15T11:50:52;100392.63;;;11.77;100.00
16595;BME280;8410;52.532;13.336;2023-04-15T11:53:19;100392.56;;;11.61;100.00
16595;BME280;8410;52.532;13.336;2023-04-15T11:55:48;100395.28;;;12.26;100.00
16595;BME280;8410;52.532;13.336;2023-04-15T11:58:18;100392.69;;;12.49;100.00
16595;BME280;8410;52.532;13.336;2023-04-15T12:00:47;100406.41;;;11.97;100.00
16595;BME280;8410;52.532;13.336;2023-04-15T12:03:21;100400.38;;;11.84;100.00
16595;BME280;8410;52.532;13.336;2023-04-15T12:06:21;100404.72;;;12.04;100.00
16595;BME280;8410;52.532;13.336;2023-04-15T12:08:50;100396.00;;;13.01;100.00
16595;BME280;8410;52.532;13.336;2023-04-15T12:11:18;100404.53;;;13.25;98.25
16595;BME280;8410;52.532;13.336;2023-04-15T12:13:47;100400.41;;;12.61;98.78
16595;BME280;8410;52.532;13.336;2023-04-15T12:16:16;100416.78;;;12.03;100.00
16595;BME280;8410;52.532;13.336;2023-04-15T12:18:44;100419.25;;;11.73;100.00
16595;BME280;8410;52.532;13.336;2023-04-15T12:21:12;100418.44;;;11.92;100.00
16595;BME280;8410;52.532;13.336;2023-04-15T12:23:48;100420.19;;;11.99;100.00
16595;BME280;8410;52.532;13.336;2023-04-15T12:26:16;100420.22;;;12.30;100.00
16595;BME280;8410;52.532;13.336;2023-04-15T12:28:44;100420.19;;;11.87;100.00
16595;BME280;8410;52.532;13.336;2023-04-15T12:31:13;100430.44;;;11.81;100.00
16595;BME280;8410;52.532;13.336;2023-04-15T12:33:40;100432.13;;;11.69;100.00
16595;BME280;8410;52.532;13.336;2023-04-15T12:36:08;100431.38;;;11.98;100.00
16595;BME280;8410;52.532;13.336;2023-04-15T12:38:36;100430.56;;;12.36;100.00
16595;BME280;8410;52.532;13.336;2023-04-15T12:41:04;100435.66;;;12.02;100.00
16595;BME280;8410;52.532;13.336;2023-04-15T12:43:32;100443.44;;;11.98;100.00
16595;BME280;8410;52.532;13.336;2023-04-15T12:45:59;100445.91;;;11.78;100.00
16595;BME280;8410;52.532;13.336;2023-04-15T12:48:27;100434.00;;;12.23;100.00
16595;BME280;8410;52.532;13.336;2023-04-15T12:50:54;100437.41;;;12.55;100.00
16595;BME280;8410;52.532;13.336;2023-04-15T12:53:22;100442.59;;;12.34;100.00
16595;BME280;8410;52.532;13.336;2023-04-15T12:55:49;100439.13;;;12.53;100.00